KLUK/LUK METAR and TAF weather

Enter ICAO airport designator
Station Type Date Time Source
KLUK METAR 2020/07/12 00:53 UTC NOAA

KLUK 120053Z 21008KT 10SM FEW120 20/18 A2988 RMK AO2 RAE44 SLP113 P0006 T02000178


Station Type Date Time Source
KLUK Decoded METAR 2020/07/12 00:53 UTC NOAA

CINCINNATI MUN LUNKEN FLD, OH, United States (KLUK) 39-06N 84-25W 155M
Jul 11, 2020 - 08:53 PM EDT / 2020.07.12 0053 UTC
Wind: from the SSW (210 degrees) at 9 MPH (8 KT):0
Visibility: 10 mile(s):0
Sky conditions: mostly clear
Precipitation last hour: 0.06 inches
Temperature: 68.0 F (20.0 C)
Dew Point: 64.0 F (17.8 C)
Relative Humidity: 87%
Pressure (altimeter): 29.88 in. Hg (1011 hPa)
ob: KLUK 120053Z 21008KT 10SM FEW120 20/18 A2988 RMK AO2 RAE44 SLP113 P0006 T02000178
cycle: 1

Station Type Date Time Source
KLUK TAF 2020/07/12 00:12 UTC NOAA

TAF
AMD KLUK 120010Z 1200/1224 24010KT 6SM -RA BKN100
FM120100 26004KT P6SM BKN080
FM120800 VRB02KT P6SM VCSH BKN050
FM121200 VRB02KT P6SM VCSH SCT025 OVC040
FM121800 24006KT P6SM -SHRA VCTS OVC040CB
FM122300 36005KT P6SM SCT050

Example: see airport list